Astoria, New York
Current Conditions -  °F | °C
As of 6:51 AM on Wednesday 26 Nov 2014 (Local Time) from KNYC Reporting Station
Light Rain Light Rain  
Wind Chill: 38°   Ceiling: 4600
Heat Index: 43°   Visibility: 8mi
Dew Point: 32°   Wind: 8mph
Humidity: 65%   Direction: 40°NE
Pressure: 30.17"   Gusts: 18mph
Location:  40.77°N, 73.93°W
Report Text: KNYC 261151Z AUTO 04007G16KT 010V080 8SM -RA OVC046 06/00 A3017 RMK AO2 RAB22 SLP207 P0001 60001 70001 T00610000 10106 20061 55009 $
Loading
Personal Weather Stations






























Interactive Weather Map New forecast layout! Learn more

10-Day Weather Forecast

Advertisements
Track Severe Weather on mobile